Time;durP1;ratioP1;P1;durP2;ratioP2;P2;SDS_P1;SDS_P2;PMS_P1;PMS_P2;Temp;Humidity;BMP_temperature;BMP_pressure;BME280_temperature;BME280_humidity;BME280_pressure;Samples;Min_cycle;Max_cycle;Signal;HPM_P1;HPM_P2
2022/07/13 00:01:32;;;;;;;13.00;11.32;;;;;;;25.21;100.00;102008.19;7401866;19;20021;-54
2022/07/13 00:04:01;;;;;;;12.38;9.85;;;;;;;25.37;100.00;102013.94;7405212;19;20007;-51
2022/07/13 00:06:30;;;;;;;13.18;11.00;;;;;;;25.34;100.00;102018.72;7405441;19;20014;-54
2022/07/13 00:08:59;;;;;;;12.30;11.10;;;;;;;25.44;100.00;102019.59;7404073;19;20500;-52
2022/07/13 00:11:28;;;;;;;15.60;10.95;;;;;;;25.49;100.00;102011.13;7404251;19;20006;-52
2022/07/13 00:13:56;;;;;;;14.88;10.63;;;;;;;25.55;100.00;102007.91;7405025;19;20014;-54
2022/07/13 00:16:25;;;;;;;12.70;11.43;;;;;;;25.49;100.00;102009.31;7402244;19;20467;-50
2022/07/13 00:18:57;;;;;;;13.25;10.98;;;;;;;25.55;100.00;102000.69;7400749;19;20025;-52
2022/07/13 00:21:25;;;;;;;12.63;10.73;;;;;;;25.64;100.00;101990.13;7404955;19;20025;-49
2022/07/13 00:23:54;;;;;;;12.55;11.18;;;;;;;25.64;100.00;101985.59;7408222;19;20025;-50
2022/07/13 00:26:23;;;;;;;12.18;10.55;;;;;;;25.67;100.00;101985.31;7407173;19;20013;-50
2022/07/13 00:28:53;;;;;;;12.80;11.07;;;;;;;25.75;100.00;101984.63;7405320;19;20029;-55
2022/07/13 00:31:22;;;;;;;13.35;11.10;;;;;;;25.77;100.00;101987.19;7404798;19;20022;-53
2022/07/13 00:33:51;;;;;;;12.85;11.52;;;;;;;25.84;100.00;101973.03;7407532;19;20014;-51
2022/07/13 00:36:22;;;;;;;12.57;11.30;;;;;;;25.81;100.00;101969.81;7405686;19;20384;-50
2022/07/13 00:38:51;;;;;;;15.27;11.48;;;;;;;25.88;100.00;101968.25;7406816;19;20480;-52
2022/07/13 00:41:20;;;;;;;12.63;10.88;;;;;;;25.93;100.00;101962.47;7405563;19;20022;-51
2022/07/13 00:43:49;;;;;;;12.77;11.48;;;;;;;25.98;100.00;101960.22;7407281;19;20046;-53
2022/07/13 00:46:18;;;;;;;12.23;11.00;;;;;;;25.99;100.00;101953.81;7397052;19;20024;-54
2022/07/13 00:48:47;;;;;;;13.27;11.30;;;;;;;26.04;100.00;101955.13;7391653;19;20018;-49
2022/07/13 00:51:16;;;;;;;13.13;11.45;;;;;;;26.03;100.00;101953.44;7396034;19;20023;-53
2022/07/13 00:53:47;;;;;;;13.77;12.27;;;;;;;26.06;100.00;101950.47;7401908;19;20384;-49
2022/07/13 00:56:17;;;;;;;14.77;11.32;;;;;;;26.05;100.00;101932.66;7400271;19;20018;-49
2022/07/13 00:58:47;;;;;;;12.70;11.38;;;;;;;26.11;100.00;101939.28;7397101;19;20022;-49
2022/07/13 01:01:16;;;;;;;12.88;11.52;;;;;;;26.08;100.00;101945.78;7395799;19;20021;-49
2022/07/13 01:03:45;;;;;;;12.13;10.77;;;;;;;26.02;100.00;101935.63;7402805;19;20010;-49
2022/07/13 01:06:14;;;;;;;13.35;11.95;;;;;;;26.00;100.00;101940.28;7395822;19;20022;-53
2022/07/13 01:08:43;;;;;;;12.98;11.68;;;;;;;26.06;100.00;101941.56;7394535;19;20015;-53
2022/07/13 01:11:15;;;;;;;12.10;10.90;;;;;;;26.04;100.00;101936.31;7395267;19;20025;-53
2022/07/13 01:13:44;;;;;;;12.90;11.53;;;;;;;26.13;100.00;101933.78;7398635;19;20011;-51
2022/07/13 01:16:13;;;;;;;13.00;11.30;;;;;;;26.15;100.00;101934.47;7395096;19;20011;-53
2022/07/13 01:18:42;;;;;;;12.82;11.45;;;;;;;26.15;100.00;101924.59;7392208;19;20468;-52
2022/07/13 01:21:13;;;;;;;14.55;10.95;;;;;;;26.12;100.00;101916.81;7392932;19;20006;-53
2022/07/13 01:23:44;;;;;;;13.60;10.82;;;;;;;26.16;100.00;101918.22;7397732;19;20026;-51
2022/07/13 01:26:13;;;;;;;14.10;11.90;;;;;;;26.21;100.00;101915.94;7394688;19;20328;-51
2022/07/13 01:28:42;;;;;;;12.05;10.85;;;;;;;26.16;100.00;101923.56;7396690;19;20019;-52
2022/07/13 01:31:11;;;;;;;13.20;10.70;;;;;;;26.46;100.00;101929.75;7394279;19;20014;-53
2022/07/13 01:33:41;;;;;;;12.40;11.20;;;;;;;26.59;100.00;101934.81;7396963;19;20078;-55
2022/07/13 01:36:10;;;;;;;12.32;11.02;;;;;;;26.63;100.00;101924.63;7393965;19;20737;-52
2022/07/13 01:38:39;;;;;;;11.95;10.23;;;;;;;26.62;100.00;101910.31;7393391;19;20026;-55
2022/07/13 01:41:10;;;;;;;12.07;10.77;;;;;;;26.64;100.00;101904.81;7390738;19;20035;-48
2022/07/13 01:43:39;;;;;;;11.73;10.52;;;;;;;26.63;100.00;101903.13;7397612;19;20010;-53
2022/07/13 01:46:08;;;;;;;12.40;11.10;;;;;;;26.64;100.00;101902.97;7396158;19;20011;-53
2022/07/13 01:48:37;;;;;;;12.77;11.48;;;;;;;26.63;100.00;101895.03;7393975;19;20022;-52
2022/07/13 01:51:06;;;;;;;15.02;10.90;;;;;;;26.63;100.00;101901.25;7393082;19;20232;-51
2022/07/13 01:53:35;;;;;;;11.57;10.38;;;;;;;26.63;100.00;101909.31;7396773;19;20027;-57
2022/07/13 01:56:04;;;;;;;12.60;10.70;;;;;;;26.74;100.00;101892.19;7395356;19;20034;-52
2022/07/13 01:58:36;;;;;;;12.27;10.75;;;;;;;26.60;100.00;101905.06;7390018;19;20021;-55
2022/07/13 02:01:05;;;;;;;11.77;10.57;;;;;;;26.53;100.00;101892.38;7390994;19;20037;-57
2022/07/13 02:03:36;;;;;;;11.50;10.07;;;;;;;26.52;100.00;101896.94;7390971;19;20090;-55
2022/07/13 02:06:06;;;;;;;11.75;9.98;;;;;;;26.51;100.00;101899.75;7393356;19;20356;-57
2022/07/13 02:08:35;;;;;;;11.80;9.88;;;;;;;26.55;100.00;101899.31;7393890;19;20014;-56
2022/07/13 02:11:04;;;;;;;12.02;10.30;;;;;;;26.54;100.00;101903.00;7392093;19;20019;-54
2022/07/13 02:13:36;;;;;;;10.75;9.48;;;;;;;26.52;100.00;101894.25;7393333;19;20024;-57
2022/07/13 02:16:05;;;;;;;12.55;9.55;;;;;;;26.58;100.00;101893.63;7394801;19;20014;-56
2022/07/13 02:18:34;;;;;;;12.85;9.88;;;;;;;26.61;100.00;101895.19;7394588;19;20018;-57
2022/07/13 02:21:05;;;;;;;11.95;9.20;;;;;;;26.59;100.00;101887.28;7390708;19;20031;-57
2022/07/13 02:23:34;;;;;;;9.82;8.80;;;;;;;26.58;100.00;101884.75;7391042;19;20025;-57
2022/07/13 02:26:03;;;;;;;9.80;8.80;;;;;;;26.58;100.00;101890.94;7395568;19;20006;-57
2022/07/13 02:28:35;;;;;;;10.30;8.98;;;;;;;26.62;100.00;101887.97;7392987;19;20014;-56
2022/07/13 02:31:04;;;;;;;10.05;8.88;;;;;;;26.65;100.00;101882.28;7393737;19;20356;-57
2022/07/13 02:33:33;;;;;;;11.95;9.15;;;;;;;26.65;100.00;101875.09;7394800;19;20011;-57
2022/07/13 02:36:02;;;;;;;10.30;8.85;;;;;;;26.73;100.00;101866.31;7393235;19;20018;-56
2022/07/13 02:38:31;;;;;;;9.30;8.40;;;;;;;26.74;100.00;101862.63;7394754;19;20017;-58
2022/07/13 02:41:03;;;;;;;11.25;9.05;;;;;;;26.73;100.00;101855.53;7390075;19;20021;-57
2022/07/13 02:43:32;;;;;;;9.82;8.93;;;;;;;26.71;100.00;101853.00;7394741;19;20325;-56
2022/07/13 02:46:03;;;;;;;11.30;8.85;;;;;;;26.63;100.00;101850.19;7392863;19;20022;-58
2022/07/13 02:48:33;;;;;;;12.35;9.52;;;;;;;26.62;100.00;101847.63;7392881;19;20357;-56
2022/07/13 02:51:03;;;;;;;9.18;8.10;;;;;;;26.62;100.00;101853.84;7391539;19;20364;-58
2022/07/13 02:53:32;;;;;;;9.98;8.93;;;;;;;26.62;100.00;101850.31;7394533;19;20412;-55
2022/07/13 02:56:01;;;;;;;7.75;6.95;;;;;;;26.48;95.61;101855.19;7393521;19;20015;-57
2022/07/13 02:58:32;;;;;;;8.45;7.30;;;;;;;26.50;99.42;101855.88;7398497;19;20021;-57
2022/07/13 03:01:03;;;;;;;8.45;7.55;;;;;;;26.57;98.81;101848.94;7397297;19;20010;-51
2022/07/13 03:03:32;;;;;;;8.02;7.22;;;;;;;26.63;98.11;101846.66;7399309;19;20013;-54
2022/07/13 03:06:04;;;;;;;10.57;7.68;;;;;;;26.63;98.83;101847.47;7401321;19;20015;-56
2022/07/13 03:08:33;;;;;;;7.97;7.15;;;;;;;26.66;100.00;101846.34;7395706;19;20049;-58
2022/07/13 03:11:01;;;;;;;9.05;8.15;;;;;;;26.67;100.00;101854.25;7392388;19;20013;-52
2022/07/13 03:13:31;;;;;;;9.88;7.35;;;;;;;26.61;97.32;101846.81;7388624;19;20328;-57
2022/07/13 03:16:03;;;;;;;8.98;7.53;;;;;;;26.61;97.61;101841.44;7386364;19;20014;-53
2022/07/13 03:18:33;;;;;;;9.57;7.45;;;;;;;26.68;99.74;101847.94;7390348;19;20015;-57
2022/07/13 03:21:02;;;;;;;7.68;6.72;;;;;;;26.61;99.05;101846.81;7390155;19;20018;-54
2022/07/13 03:23:31;;;;;;;8.43;6.88;;;;;;;26.57;96.27;101851.63;7391844;19;20022;-53
2022/07/13 03:26:00;;;;;;;7.72;6.40;;;;;;;26.63;97.88;101844.78;7390620;19;20014;-52
2022/07/13 03:28:29;;;;;;;8.40;7.10;;;;;;;26.64;100.00;101832.22;7393283;19;20029;-54
2022/07/13 03:30:58;;;;;;;7.80;7.00;;;;;;;26.65;100.00;101815.94;7393353;19;20026;-56
2022/07/13 03:33:30;;;;;;;7.88;6.82;;;;;;;26.64;100.00;101814.25;7394088;19;20463;-56
2022/07/13 03:35:59;;;;;;;8.52;7.72;;;;;;;26.57;100.00;101818.53;7390277;19;20018;-57
2022/07/13 03:38:28;;;;;;;8.98;7.28;;;;;;;26.58;99.37;101825.59;7389793;19;20014;-56
2022/07/13 03:40:57;;;;;;;7.72;6.93;;;;;;;26.59;98.32;101830.81;7389605;19;20026;-57
2022/07/13 03:43:26;;;;;;;7.25;6.50;;;;;;;26.54;95.37;101825.03;7391796;19;20011;-54
2022/07/13 03:45:55;;;;;;;7.18;6.43;;;;;;;26.50;93.84;101826.31;7388636;19;20010;-54
2022/07/13 03:48:25;;;;;;;8.60;6.55;;;;;;;26.50;92.73;101820.94;7387494;19;20013;-52
2022/07/13 03:50:57;;;;;;;7.82;6.47;;;;;;;26.54;94.38;101802.69;7388852;19;20045;-55
2022/07/13 03:53:26;;;;;;;7.25;6.32;;;;;;;26.53;92.61;101809.06;7388429;19;20026;-55
2022/07/13 03:55:55;;;;;;;9.82;6.75;;;;;;;26.54;93.24;101808.91;7388861;19;20021;-52
2022/07/13 03:58:24;;;;;;;7.85;6.45;;;;;;;26.62;92.47;101805.47;7388904;19;20018;-57
2022/07/13 04:00:55;;;;;;;7.50;6.18;;;;;;;26.59;89.44;101808.44;7388678;19;20079;-55
2022/07/13 04:03:25;;;;;;;7.47;6.03;;;;;;;26.57;89.03;101810.47;7394015;19;20022;-57
2022/07/13 04:05:57;;;;;;;8.45;6.65;;;;;;;26.58;88.72;101796.03;7389989;19;20015;-54
2022/07/13 04:08:26;;;;;;;8.10;5.85;;;;;;;26.57;88.86;101800.53;7390673;19;20429;-55
2022/07/13 04:10:56;;;;;;;8.43;6.15;;;;;;;26.59;90.01;101803.94;7392625;19;20014;-57
2022/07/13 04:13:26;;;;;;;6.10;5.50;;;;;;;26.60;90.03;101796.72;7395277;19;20010;-53
2022/07/13 04:15:55;;;;;;;6.30;5.60;;;;;;;26.64;90.08;101797.28;7391778;19;20030;-56
2022/07/13 04:18:24;;;;;;;6.35;5.70;;;;;;;26.59;87.70;101798.56;7390221;19;20468;-58
2022/07/13 04:20:53;;;;;;;11.48;5.57;;;;;;;26.59;87.45;101805.75;7391609;19;20017;-52
2022/07/13 04:23:24;;;;;;;7.32;5.80;;;;;;;26.59;88.22;101800.38;7398637;19;20108;-51
2022/07/13 04:25:54;;;;;;;6.55;5.45;;;;;;;26.62;87.43;101800.06;7397334;19;20491;-53
2022/07/13 04:28:23;;;;;;;7.43;6.10;;;;;;;26.63;89.56;101790.19;7396644;19;20025;-56
2022/07/13 04:30:52;;;;;;;6.63;5.95;;;;;;;26.67;89.05;101794.28;7397931;19;20018;-56
2022/07/13 04:33:24;;;;;;;12.03;6.17;;;;;;;26.64;89.59;101792.72;7399811;19;20018;-56
2022/07/13 04:35:53;;;;;;;6.85;6.15;;;;;;;26.63;90.33;101796.41;7396167;19;20243;-58
2022/07/13 04:38:26;;;;;;;6.47;5.72;;;;;;;26.59;90.46;101786.94;7394442;19;20023;-57
2022/07/13 04:40:55;;;;;;;9.98;5.90;;;;;;;26.62;89.60;101783.13;7395051;19;20014;-57
2022/07/13 04:43:24;;;;;;;7.05;5.70;;;;;;;26.63;87.80;101780.28;7398047;19;20476;-56
2022/07/13 04:45:53;;;;;;;8.82;5.82;;;;;;;26.65;87.51;101778.28;7395025;19;20017;-56
2022/07/13 04:48:22;;;;;;;9.88;6.03;;;;;;;26.63;89.74;101780.28;7394117;19;20341;-57
2022/07/13 04:50:52;;;;;;;7.03;5.90;;;;;;;26.64;90.44;101778.44;7394815;19;20412;-57
2022/07/13 04:53:21;;;;;;;8.60;6.28;;;;;;;26.61;89.02;101776.91;7398018;19;20352;-57
2022/07/13 04:55:52;;;;;;;8.15;6.00;;;;;;;26.64;88.73;101768.53;7394503;19;20018;-54
2022/07/13 04:58:21;;;;;;;9.07;6.80;;;;;;;26.35;93.55;101761.47;7396243;19;20014;-57
2022/07/13 05:00:50;;;;;;;7.05;6.13;;;;;;;26.29;92.35;101763.91;7398528;19;20025;-54
2022/07/13 05:03:19;;;;;;;7.65;6.50;;;;;;;26.29;92.94;101767.41;7397603;19;20011;-56
2022/07/13 05:05:49;;;;;;;7.10;6.15;;;;;;;26.32;94.27;101767.16;7398225;19;20011;-57
2022/07/13 05:08:18;;;;;;;8.90;5.90;;;;;;;26.40;95.52;101767.22;7393300;19;20015;-56
2022/07/13 05:10:47;;;;;;;9.05;6.10;;;;;;;26.40;92.43;101764.53;7396646;19;20024;-56
2022/07/13 05:13:19;;;;;;;7.55;5.85;;;;;;;26.43;92.20;101768.78;7398580;19;20111;-58
2022/07/13 05:15:51;;;;;;;9.15;5.38;;;;;;;26.34;88.64;101762.47;7394908;19;20100;-58
2022/07/13 05:18:21;;;;;;;10.88;6.00;;;;;;;26.38;86.70;101763.03;7396140;19;20025;-57
2022/07/13 05:20:50;;;;;;;6.95;5.93;;;;;;;26.42;87.04;101759.00;7399495;19;20033;-55
2022/07/13 05:23:19;;;;;;;13.82;6.72;;;;;;;26.42;85.75;101767.94;7397063;19;20022;-53
2022/07/13 05:25:48;;;;;;;11.63;6.68;;;;;;;26.50;84.62;101766.34;7396115;19;20022;-56
2022/07/13 05:28:20;;;;;;;11.10;5.68;;;;;;;26.49;83.55;101757.41;7392371;19;20018;-53
2022/07/13 05:30:50;;;;;;;9.15;6.20;;;;;;;26.42;79.88;101764.38;7395758;19;20468;-54
2022/07/13 05:33:20;;;;;;;10.43;6.25;;;;;;;26.28;78.56;101775.63;7395662;19;20022;-56
2022/07/13 05:35:50;;;;;;;9.30;6.55;;;;;;;26.19;78.74;101774.69;7396569;19;20025;-57
2022/07/13 05:38:20;;;;;;;9.45;7.00;;;;;;;25.87;80.95;101771.34;7392198;19;20484;-56
2022/07/13 05:40:49;;;;;;;9.00;7.07;;;;;;;25.91;80.27;101772.75;7398200;19;20022;-58
2022/07/13 05:43:21;;;;;;;9.30;6.95;;;;;;;25.90;79.33;101767.53;7394866;19;20029;-53
2022/07/13 05:45:50;;;;;;;10.23;7.82;;;;;;;25.79;80.37;101770.41;7395613;19;20023;-56
2022/07/13 05:48:19;;;;;;;10.52;7.30;;;;;;;25.94;80.10;101766.25;7391857;19;20475;-57
2022/07/13 05:50:48;;;;;;;12.75;8.23;;;;;;;26.16;80.01;101783.03;7395047;19;20018;-56
2022/07/13 05:53:18;;;;;;;12.20;7.90;;;;;;;26.13;80.49;101784.19;7396605;19;20021;-57
2022/07/13 05:55:47;;;;;;;10.68;8.18;;;;;;;25.97;81.68;101783.94;7395353;19;20026;-57
2022/07/13 05:58:15;;;;;;;10.55;8.20;;;;;;;26.08;82.63;101792.69;7393144;19;20035;-55
2022/07/13 06:00:47;;;;;;;12.52;8.63;;;;;;;26.27;83.51;101779.34;7396676;19;20018;-57
2022/07/13 06:03:16;;;;;;;11.73;8.32;;;;;;;26.21;82.47;101776.22;7396703;19;20018;-56
2022/07/13 06:05:45;;;;;;;12.77;8.55;;;;;;;26.32;83.73;101774.34;7398222;19;20026;-57
2022/07/13 06:08:14;;;;;;;13.00;9.07;;;;;;;26.38;81.32;101781.84;7393484;19;20130;-57
2022/07/13 06:10:42;;;;;;;11.57;9.68;;;;;;;26.07;82.22;101777.53;7396110;19;20027;-58
2022/07/13 06:13:11;;;;;;;11.73;8.98;;;;;;;26.26;81.93;101786.53;7397307;19;20014;-56
2022/07/13 06:15:40;;;;;;;17.45;10.27;;;;;;;26.33;83.05;101782.25;7396441;19;20010;-57
2022/07/13 06:18:12;;;;;;;12.60;10.30;;;;;;;26.22;82.11;101777.06;7395812;19;20021;-57
2022/07/13 06:20:40;;;;;;;13.50;10.13;;;;;;;26.33;82.76;101768.81;7395292;19;20014;-56
2022/07/13 06:23:14;;;;;;;12.40;10.07;;;;;;;26.21;81.81;101768.19;7395269;19;20009;-58
2022/07/13 06:25:45;;;;;;;14.27;11.35;;;;;;;26.25;79.56;101769.56;7395778;19;20015;-57
2022/07/13 06:28:14;;;;;;;21.73;11.30;;;;;;;26.30;81.74;101768.28;7395938;19;20018;-56
2022/07/13 06:30:43;;;;;;;15.10;11.07;;;;;;;26.21;80.17;101770.88;7395137;19;20035;-56
2022/07/13 06:33:14;;;;;;;13.65;10.82;;;;;;;26.07;82.23;101768.66;7396297;19;20006;-52
2022/07/13 06:35:43;;;;;;;14.07;11.32;;;;;;;25.89;83.31;101769.38;7394974;19;20018;-56
2022/07/13 06:38:12;;;;;;;15.05;11.68;;;;;;;25.88;82.67;101762.31;7392817;19;20356;-56
2022/07/13 06:40:41;;;;;;;14.57;11.35;;;;;;;25.91;84.06;101755.81;7389314;19;20029;-52
2022/07/13 06:43:10;;;;;;;15.55;11.45;;;;;;;25.99;84.84;101755.06;7395004;19;20014;-55
2022/07/13 06:45:39;;;;;;;15.65;10.90;;;;;;;25.96;83.12;101758.06;7394691;19;20025;-56
2022/07/13 06:48:08;;;;;;;15.63;11.80;;;;;;;26.03;82.85;101756.50;7397088;19;20014;-60
2022/07/13 06:50:40;;;;;;;15.68;11.38;;;;;;;26.10;83.39;101771.03;7393904;19;20023;-53
2022/07/13 06:53:09;;;;;;;17.98;11.43;;;;;;;25.91;84.65;101770.06;7397223;19;20023;-57
2022/07/13 06:55:38;;;;;;;16.50;11.25;;;;;;;26.19;84.51;101767.50;7394457;19;20018;-53
2022/07/13 06:58:06;;;;;;;15.52;11.40;;;;;;;26.23;85.27;101776.94;7392426;19;20011;-58
2022/07/13 07:00:35;;;;;;;16.67;11.65;;;;;;;26.42;84.68;101767.06;7393167;19;20010;-57
2022/07/13 07:03:04;;;;;;;15.15;12.15;;;;;;;26.23;84.22;101763.50;7395809;19;20019;-55
2022/07/13 07:05:33;;;;;;;19.52;11.95;;;;;;;26.34;84.22;101769.69;7395793;19;20290;-56
2022/07/13 07:08:05;;;;;;;15.95;12.35;;;;;;;26.23;85.14;101765.34;7395885;19;20015;-58
2022/07/13 07:10:33;;;;;;;15.60;12.27;;;;;;;26.34;84.84;101767.84;7395335;19;20030;-55
2022/07/13 07:13:02;;;;;;;16.85;11.88;;;;;;;26.42;87.49;101773.31;7395122;19;20480;-54
2022/07/13 07:15:31;;;;;;;15.18;12.40;;;;;;;26.47;86.16;101775.56;7395607;19;20014;-55
2022/07/13 07:18:00;;;;;;;15.35;11.70;;;;;;;26.64;84.96;101773.91;7393805;19;20025;-53
2022/07/13 07:20:29;;;;;;;15.10;11.35;;;;;;;26.78;84.18;101777.97;7393777;19;20014;-53
2022/07/13 07:22:58;;;;;;;15.02;11.23;;;;;;;26.93;83.46;101771.03;7393258;19;20014;-56
2022/07/13 07:25:29;;;;;;;18.70;11.32;;;;;;;27.08;82.06;101773.19;7392455;19;21538;-53
2022/07/13 07:27:58;;;;;;;14.57;10.95;;;;;;;26.50;79.60;101769.88;7393083;19;20018;-57
2022/07/13 07:30:27;;;;;;;14.40;11.13;;;;;;;26.54;81.86;101760.53;7396552;19;20579;-56
2022/07/13 07:32:56;;;;;;;15.32;10.85;;;;;;;26.68;80.70;101769.06;7394138;19;20018;-54
2022/07/13 07:35:25;;;;;;;13.00;10.25;;;;;;;26.54;81.85;101759.69;7393845;19;20019;-52
2022/07/13 07:37:54;;;;;;;16.00;10.63;;;;;;;26.69;81.81;101776.16;7391909;19;20038;-52
2022/07/13 07:40:23;;;;;;;13.23;10.93;;;;;;;26.47;81.90;101766.66;7395321;19;20043;-53
2022/07/13 07:42:54;;;;;;;13.77;10.25;;;;;;;26.73;81.35;101764.94;7394030;19;20019;-56
2022/07/13 07:45:24;;;;;;;14.30;9.98;;;;;;;26.70;80.35;101769.81;7392014;19;20112;-53
2022/07/13 07:47:52;;;;;;;11.10;9.18;;;;;;;26.88;79.39;101767.13;7389992;19;20029;-52
2022/07/13 07:50:22;;;;;;;11.93;9.27;;;;;;;27.23;79.10;101768.97;7388114;19;20018;-53
2022/07/13 07:52:51;;;;;;;11.77;9.10;;;;;;;27.35;77.85;101766.09;7392516;19;20014;-54
2022/07/13 07:55:20;;;;;;;9.77;7.88;;;;;;;27.25;75.44;101766.13;7396339;19;20030;-48
2022/07/13 07:57:51;;;;;;;10.82;7.90;;;;;;;27.17;76.28;101769.59;7396822;19;20019;-49
2022/07/13 08:00:23;;;;;;;9.85;7.03;;;;;;;27.23;77.57;101757.38;7396790;19;20010;-49
2022/07/13 08:02:52;;;;;;;20.85;8.48;;;;;;;27.22;77.66;101766.44;7398223;19;20015;-53
2022/07/13 08:05:21;;;;;;;10.48;7.85;;;;;;;27.01;77.82;101761.38;7397359;19;20006;-53
2022/07/13 08:07:50;;;;;;;16.02;7.40;;;;;;;27.04;78.27;101761.91;7396558;19;20018;-50
2022/07/13 08:10:19;;;;;;;13.68;8.05;;;;;;;27.14;78.27;101750.22;7398499;19;20418;-52
2022/07/13 08:12:48;;;;;;;10.73;7.38;;;;;;;27.40;79.80;101759.22;7399577;19;20017;-50
2022/07/13 08:15:16;;;;;;;11.55;7.00;;;;;;;27.30;78.03;101755.75;7397016;19;20092;-49
2022/07/13 08:17:48;;;;;;;10.23;7.30;;;;;;;27.53;78.64;101752.59;7397099;19;20332;-45
2022/07/13 08:20:17;;;;;;;11.23;7.10;;;;;;;27.28;78.63;101755.06;7397009;19;20022;-50
2022/07/13 08:22:46;;;;;;;23.65;8.50;;;;;;;27.58;79.01;101755.66;7396372;19;20018;-49
2022/07/13 08:25:15;;;;;;;12.07;6.72;;;;;;;27.62;77.61;101755.22;7396974;19;20010;-51
2022/07/13 08:27:44;;;;;;;11.02;7.07;;;;;;;27.56;78.61;101761.19;7398180;19;20019;-53
2022/07/13 08:30:13;;;;;;;17.80;6.50;;;;;;;27.60;79.60;101756.38;7395497;19;20017;-49
2022/07/13 08:32:43;;;;;;;6.75;6.05;;;;;;;27.70;81.38;101753.56;7394514;19;20067;-47
2022/07/13 08:40:41;;;;;;;12.95;6.35;;;;;;;28.25;78.01;101763.16;7397113;19;20034;-52
2022/07/13 08:43:10;;;;;;;8.32;6.40;;;;;;;28.37;74.49;101764.56;7395959;19;20018;-48
2022/07/13 08:45:41;;;;;;;9.10;7.10;;;;;;;28.28;74.32;101768.22;7414805;19;20006;-49
2022/07/13 08:48:17;;;;;;;11.40;6.78;;;;;;;28.23;77.20;101765.19;7399771;19;20439;-52
2022/07/13 08:50:50;;;;;;;12.98;6.65;;;;;;;28.40;76.06;101758.84;7395770;19;20010;-50
2022/07/13 08:53:19;;;;;;;8.07;6.53;;;;;;;28.43;75.04;101765.75;7397459;19;20030;-51
2022/07/13 08:55:48;;;;;;;10.77;7.63;;;;;;;28.39;75.78;101767.09;7394534;19;20014;-54
2022/07/13 08:58:18;;;;;;;11.07;6.80;;;;;;;28.50;79.05;101764.09;7398394;19;20014;-50
2022/07/13 09:00:48;;;;;;;9.82;7.00;;;;;;;28.51;72.60;101767.63;7395564;19;20321;-53
2022/07/13 09:03:16;;;;;;;10.70;7.78;;;;;;;28.52;71.78;101763.94;7395908;19;20018;-52
2022/07/13 09:05:48;;;;;;;13.43;6.43;;;;;;;28.75;71.86;101770.44;7395969;19;20010;-49
2022/07/13 09:08:17;;;;;;;9.57;6.73;;;;;;;28.76;71.93;101772.13;7391595;19;20022;-51
2022/07/13 09:10:57;;;;;;;10.10;6.70;;;;;;;28.73;69.29;101774.28;7394724;19;20018;-49
2022/07/13 09:13:38;;;;;;;8.60;6.43;;;;;;;28.56;70.17;101776.09;7397795;19;20038;-49
2022/07/13 09:16:18;;;;;;;8.32;6.40;;;;;;;28.90;70.53;101775.19;7396621;19;20134;-48
2022/07/13 09:18:48;;;;;;;8.98;6.55;;;;;;;28.58;70.58;101772.19;7394561;19;20467;-52
2022/07/13 09:21:20;;;;;;;8.07;6.28;;;;;;;28.73;69.24;101777.00;7395037;19;20022;-52
2022/07/13 09:23:51;;;;;;;8.70;6.35;;;;;;;28.78;70.50;101774.66;7393656;19;20494;-48
2022/07/13 09:26:21;;;;;;;8.98;6.25;;;;;;;29.15;70.40;101776.91;7396209;19;20061;-48
2022/07/13 09:28:52;;;;;;;9.10;6.40;;;;;;;29.21;70.79;101775.38;7393404;19;20490;-58
2022/07/13 09:31:21;;;;;;;9.15;6.43;;;;;;;29.09;67.88;101776.75;7395537;19;20312;-54
2022/07/13 09:33:50;;;;;;;8.75;5.97;;;;;;;29.42;68.01;101760.59;7392924;19;20014;-52
2022/07/13 09:36:25;;;;;;;11.90;5.50;;;;;;;29.46;67.83;101759.19;7397871;19;20025;-53
2022/07/13 09:38:54;;;;;;;10.68;7.97;;;;;;;29.27;67.07;101766.66;7398243;19;20041;-53
2022/07/13 09:41:25;;;;;;;7.53;5.95;;;;;;;29.20;66.85;101770.16;7395286;19;20022;-52
2022/07/13 09:47:00;;;;;;;11.27;5.93;;;;;;;29.33;63.70;101768.69;7394215;19;20065;-52
2022/07/13 09:49:35;;;;;;;8.65;5.57;;;;;;;29.16;65.38;101775.06;7393681;19;20429;-51
2022/07/13 09:52:09;;;;;;;10.18;5.80;;;;;;;29.40;65.74;101766.16;7395359;19;20018;-51
2022/07/13 09:54:39;;;;;;;11.23;6.25;;;;;;;29.34;65.01;101756.88;7393958;19;20086;-52
2022/07/13 09:57:11;;;;;;;8.98;5.72;;;;;;;29.06;64.21;101772.53;7397978;19;20021;-51
2022/07/13 09:59:42;;;;;;;6.97;5.70;;;;;;;29.51;62.68;101764.94;7393009;19;20023;-51
2022/07/13 10:02:11;;;;;;;8.93;5.70;;;;;;;29.84;60.20;101770.34;7395538;19;20025;-49
2022/07/13 10:04:42;;;;;;;15.52;5.85;;;;;;;29.84;58.59;101773.03;7396904;19;20019;-51
2022/07/13 10:07:13;;;;;;;9.45;4.85;;;;;;;30.19;57.98;101781.75;7397230;19;20025;-54
2022/07/13 10:09:42;;;;;;;9.80;5.68;;;;;;;30.42;57.41;101780.94;7393380;19;20738;-54
2022/07/13 10:12:11;;;;;;;9.63;5.60;;;;;;;30.12;57.29;101778.88;7395293;19;20025;-48
2022/07/13 10:14:41;;;;;;;9.43;5.47;;;;;;;30.00;57.73;101778.41;7394153;19;20025;-50
2022/07/13 10:17:13;;;;;;;6.68;4.40;;;;;;;30.36;54.29;101783.34;7397063;19;20015;-49
2022/07/13 10:19:44;;;;;;;8.07;4.40;;;;;;;30.57;54.58;101781.91;7392295;19;20025;-53
2022/07/13 10:22:20;;;;;;;10.35;4.43;;;;;;;30.19;53.07;101789.84;7395187;19;20014;-52
2022/07/13 10:24:57;;;;;;;13.90;5.13;;;;;;;30.11;54.08;101789.88;7390241;19;20019;-51
2022/07/13 10:27:27;;;;;;;7.25;4.97;;;;;;;30.34;55.05;101779.13;7397034;19;20022;-52
2022/07/13 10:29:58;;;;;;;8.50;4.88;;;;;;;30.25;54.53;101775.63;7392493;19;20010;-50
2022/07/13 10:32:29;;;;;;;8.55;4.68;;;;;;;30.36;53.58;101780.66;7395744;19;20033;-52
2022/07/13 10:35:01;;;;;;;8.05;4.85;;;;;;;30.53;53.49;101786.00;7397812;19;20479;-50
2022/07/13 10:38:08;;;;;;;6.20;5.00;;;;;;;30.69;52.95;101788.63;7393536;19;20022;-53
2022/07/13 10:40:39;;;;;;;11.43;5.10;;;;;;;30.75;53.26;101786.22;7394959;19;20011;-49
2022/07/13 10:43:12;;;;;;;9.27;4.60;;;;;;;30.30;55.02;101792.16;7392985;19;20026;-49
2022/07/13 10:45:52;;;;;;;8.05;4.68;;;;;;;30.79;53.66;101790.25;7392599;19;20017;-49
2022/07/13 10:48:47;;;;;;;7.30;4.68;;;;;;;30.81;53.43;101780.09;7393440;19;20231;-47
2022/07/13 10:51:24;;;;;;;11.82;4.75;;;;;;;30.63;54.05;101767.69;7366997;19;20463;-51
2022/07/13 10:54:11;;;;;;;5.97;3.83;;;;;;;30.56;51.50;101779.41;7395272;19;20108;-54
2022/07/13 10:57:17;;;;;;;5.82;4.07;;;;;;;30.74;51.00;101777.25;7394813;19;20126;-54
2022/07/13 10:59:50;;;;;;;5.57;4.18;;;;;;;31.09;51.44;101776.91;7391278;19;20045;-49
2022/07/13 11:02:56;;;;;;;11.23;4.43;;;;;;;31.15;52.15;101781.56;7394159;19;20014;-50
2022/07/13 11:05:30;;;;;;;6.90;4.80;;;;;;;31.30;51.74;101784.34;7390357;19;20360;-49
2022/07/13 11:07:59;;;;;;;6.38;4.53;;;;;;;31.52;52.02;101788.91;7391951;19;20014;-53
2022/07/13 11:10:33;;;;;;;7.22;4.78;;;;;;;31.43;50.86;101779.16;7390829;19;20010;-48
2022/07/13 11:13:04;;;;;;;10.02;4.70;;;;;;;31.61;52.51;101778.00;7390483;19;20015;-47
2022/07/13 11:15:47;;;;;;;10.13;4.65;;;;;;;31.45;52.70;101789.78;7392546;19;20024;-49
2022/07/13 11:18:27;;;;;;;6.18;4.70;;;;;;;31.97;50.89;101788.16;7390821;19;20039;-47
2022/07/13 11:21:01;;;;;;;5.72;4.65;;;;;;;31.87;49.20;101788.41;7393096;19;20574;-48
2022/07/13 11:26:41;;;;;;;6.97;4.30;;;;;;;32.12;49.00;101791.69;7392777;19;20022;-51
2022/07/13 11:29:19;;;;;;;12.00;3.20;;;;;;;32.01;45.92;101794.84;7392857;19;20017;-50
2022/07/13 11:31:48;;;;;;;5.28;3.50;;;;;;;32.62;43.76;101791.94;7390869;19;20007;-51
2022/07/13 11:34:17;;;;;;;9.38;3.30;;;;;;;32.70;41.49;101800.00;7389083;19;20019;-51
2022/07/13 11:36:48;;;;;;;11.73;3.25;;;;;;;32.04;39.14;101794.50;7393843;19;20021;-53
2022/07/13 11:39:26;;;;;;;5.20;2.20;;;;;;;31.87;39.71;101799.25;7393879;19;20018;-53
2022/07/13 11:42:00;;;;;;;3.72;2.30;;;;;;;31.91;39.46;101798.69;7391518;19;20026;-48
2022/07/13 11:44:30;;;;;;;7.57;2.55;;;;;;;32.09;38.38;101794.78;7389328;19;20014;-52